createdAt,value
2022-10-31T00:00:54.300Z,8.80
2022-10-31T00:03:41.032Z,8.77
2022-10-31T00:06:27.878Z,8.79
2022-10-31T00:09:14.900Z,8.87
2022-10-31T00:12:01.559Z,8.86
2022-10-31T00:14:49.008Z,8.86
2022-10-31T00:17:38.309Z,8.88
2022-10-31T00:20:24.772Z,8.84
2022-10-31T00:23:12.703Z,8.85
2022-10-31T00:26:03.034Z,8.84
2022-10-31T00:28:50.199Z,8.79
2022-10-31T00:31:36.973Z,8.85
2022-10-31T00:34:24.948Z,8.89
2022-10-31T00:37:12.109Z,8.92
2022-10-31T00:39:59.008Z,8.94
2022-10-31T00:42:45.821Z,8.89
2022-10-31T00:45:32.582Z,8.89
2022-10-31T00:48:19.478Z,8.88
2022-10-31T00:51:08.033Z,8.82
2022-10-31T00:53:54.958Z,8.80
2022-10-31T00:56:41.629Z,8.81
2022-10-31T00:59:28.474Z,8.76
2022-10-31T01:02:16.142Z,8.72
2022-10-31T01:05:02.935Z,8.65
2022-10-31T01:07:51.271Z,8.63
2022-10-31T01:10:38.061Z,8.62
2022-10-31T01:13:24.515Z,8.58
2022-10-31T01:16:14.479Z,8.57
2022-10-31T01:19:01.155Z,8.52
2022-10-31T01:21:47.855Z,8.45
2022-10-31T01:24:36.282Z,8.43
2022-10-31T01:27:23.006Z,8.42
2022-10-31T01:30:10.671Z,8.38
2022-10-31T01:32:57.218Z,8.34
2022-10-31T01:35:45.646Z,8.29
2022-10-31T01:38:35.295Z,8.21
2022-10-31T01:41:27.779Z,8.18
2022-10-31T01:44:51.879Z,8.16
2022-10-31T01:47:45.643Z,8.14
2022-10-31T01:50:37.277Z,8.11
2022-10-31T01:53:27.273Z,8.27
2022-10-31T01:56:17.080Z,8.46
2022-10-31T01:59:10.080Z,8.35
2022-10-31T02:01:56.591Z,8.25
2022-10-31T02:04:43.995Z,8.41
2022-10-31T02:07:38.848Z,8.35
2022-10-31T02:10:26.738Z,8.38
2022-10-31T02:13:15.168Z,8.39
2022-10-31T02:16:11.491Z,8.31
2022-10-31T02:18:59.016Z,8.27
2022-10-31T02:21:53.564Z,8.24
2022-10-31T02:24:48.520Z,8.25
2022-10-31T02:28:08.811Z,8.25
2022-10-31T02:31:08.104Z,8.23
2022-10-31T02:34:00.437Z,8.30
2022-10-31T02:36:58.476Z,8.34
2022-10-31T02:39:53.791Z,8.27
2022-10-31T02:42:54.930Z,8.28
2022-10-31T02:45:49.319Z,8.24
2022-10-31T02:48:42.048Z,8.30
2022-10-31T02:51:29.488Z,8.31
2022-10-31T02:54:21.934Z,8.26
2022-10-31T02:57:10.636Z,8.27
2022-10-31T03:00:02.780Z,8.29
2022-10-31T03:03:03.713Z,8.21
2022-10-31T03:06:00.974Z,8.17
2022-10-31T03:08:56.030Z,8.14
2022-10-31T03:11:48.962Z,8.13
2022-10-31T03:14:43.317Z,8.09
2022-10-31T03:17:36.462Z,8.10
2022-10-31T03:20:28.506Z,8.05
2022-10-31T03:23:19.767Z,8.05
2022-10-31T03:26:13.602Z,8.03
2022-10-31T03:29:05.161Z,7.99
2022-10-31T03:31:58.019Z,7.98
2022-10-31T03:34:47.804Z,7.85
2022-10-31T03:37:41.694Z,7.90
2022-10-31T03:40:37.247Z,7.86
2022-10-31T03:43:30.716Z,7.83
2022-10-31T03:46:17.594Z,7.83
2022-10-31T03:49:05.360Z,7.78
2022-10-31T03:52:00.307Z,7.75
2022-10-31T03:54:48.584Z,7.68
2022-10-31T03:57:41.533Z,7.71
2022-10-31T04:00:32.812Z,7.94
2022-10-31T04:03:23.627Z,8.07
2022-10-31T04:06:16.372Z,7.97
2022-10-31T04:09:06.870Z,7.90
2022-10-31T04:11:58.678Z,7.90
2022-10-31T04:14:59.754Z,7.94
2022-10-31T04:17:49.712Z,7.92
2022-10-31T04:20:40.818Z,7.93
2022-10-31T04:23:29.098Z,8.00
2022-10-31T04:26:16.003Z,7.99
2022-10-31T04:29:04.879Z,7.76
2022-10-31T04:31:53.071Z,7.90
2022-10-31T04:34:39.820Z,7.83
2022-10-31T04:37:26.553Z,7.79
2022-10-31T04:40:13.695Z,7.82
2022-10-31T04:43:06.449Z,7.79
2022-10-31T04:45:53.277Z,7.78
2022-10-31T04:48:42.570Z,7.78
2022-10-31T04:51:29.312Z,7.79
2022-10-31T04:54:16.185Z,7.76
2022-10-31T04:57:14.782Z,7.76
2022-10-31T05:00:02.969Z,7.75
2022-10-31T05:02:51.115Z,7.77
2022-10-31T05:05:38.972Z,7.81
2022-10-31T05:08:26.207Z,7.85
2022-10-31T05:11:14.187Z,7.84
2022-10-31T05:14:00.798Z,7.88
2022-10-31T05:17:17.032Z,7.93
2022-10-31T05:20:35.649Z,7.89
2022-10-31T05:23:33.971Z,7.83
2022-10-31T05:26:20.697Z,7.86
2022-10-31T05:29:07.970Z,7.82
2022-10-31T05:31:55.907Z,7.78
2022-10-31T05:35:06.181Z,7.73
2022-10-31T05:38:13.043Z,7.70
2022-10-31T05:41:02.242Z,7.71
2022-10-31T05:43:52.207Z,7.70
2022-10-31T05:46:44.647Z,7.74
2022-10-31T05:49:50.299Z,7.71
2022-10-31T05:52:57.870Z,7.67
2022-10-31T05:55:50.426Z,7.60
2022-10-31T05:58:41.043Z,7.62
2022-10-31T06:01:28.424Z,7.60
2022-10-31T06:04:17.244Z,7.60
2022-10-31T06:07:04.049Z,7.65
2022-10-31T06:09:50.695Z,7.74
2022-10-31T06:12:41.739Z,7.89
2022-10-31T06:15:48.999Z,7.92
2022-10-31T06:18:38.251Z,7.95
2022-10-31T06:21:25.364Z,7.99
2022-10-31T06:24:11.792Z,8.10
2022-10-31T06:27:25.205Z,8.16
2022-10-31T06:30:12.898Z,8.25
2022-10-31T06:33:05.817Z,8.28
2022-10-31T06:35:55.769Z,8.38
2022-10-31T06:38:42.552Z,8.46
2022-10-31T06:41:30.313Z,8.47
2022-10-31T06:44:17.087Z,8.56
2022-10-31T06:47:19.350Z,8.67
2022-10-31T06:50:17.657Z,8.75
2022-10-31T06:53:07.772Z,8.77
2022-10-31T06:55:54.264Z,8.79
2022-10-31T06:58:42.948Z,8.86
2022-10-31T07:01:31.941Z,8.95
2022-10-31T07:04:20.257Z,9.10
2022-10-31T07:07:09.320Z,9.18
2022-10-31T07:09:58.071Z,9.30
2022-10-31T07:13:03.456Z,9.44
2022-10-31T07:15:52.696Z,9.54
2022-10-31T07:18:39.480Z,9.74
2022-10-31T07:21:26.187Z,9.90
2022-10-31T07:24:14.249Z,10.08
2022-10-31T07:27:03.689Z,10.26
2022-10-31T07:29:50.469Z,10.50
2022-10-31T07:32:41.331Z,10.73
2022-10-31T07:35:30.244Z,10.98
2022-10-31T07:38:18.507Z,11.04
2022-10-31T07:41:06.890Z,11.25
2022-10-31T07:43:59.046Z,11.48
2022-10-31T07:47:15.369Z,11.85
2022-10-31T07:50:23.135Z,12.07
2022-10-31T07:53:42.212Z,12.29
2022-10-31T07:56:43.693Z,12.40
2022-10-31T07:59:30.389Z,12.53
2022-10-31T08:02:17.065Z,12.66
2022-10-31T08:05:30.034Z,12.69
2022-10-31T08:08:46.709Z,12.85
2022-10-31T08:11:33.433Z,12.97
2022-10-31T08:14:23.457Z,12.90
2022-10-31T08:17:12.198Z,12.85
2022-10-31T08:20:10.205Z,12.75
2022-10-31T08:23:06.467Z,12.69
2022-10-31T08:25:55.102Z,12.75
2022-10-31T08:28:43.546Z,12.76
2022-10-31T08:31:33.974Z,12.86
2022-10-31T08:34:41.161Z,12.96
2022-10-31T08:37:46.349Z,13.06
2022-10-31T08:40:36.159Z,13.17
2022-10-31T08:43:23.156Z,13.25
2022-10-31T08:46:10.676Z,13.28
2022-10-31T08:49:00.890Z,13.39
2022-10-31T08:51:49.949Z,13.45
2022-10-31T08:54:36.967Z,13.56
2022-10-31T08:57:42.932Z,13.56
2022-10-31T09:00:31.422Z,13.61
2022-10-31T09:03:24.131Z,13.63
2022-10-31T09:06:12.184Z,13.71
2022-10-31T09:08:59.713Z,13.75
2022-10-31T09:11:46.515Z,13.85
2022-10-31T09:14:51.838Z,13.91
2022-10-31T09:17:48.707Z,14.00
2022-10-31T09:20:43.576Z,14.07
2022-10-31T09:23:33.051Z,14.11
2022-10-31T09:26:20.638Z,14.18
2022-10-31T09:29:16.394Z,14.18
2022-10-31T09:32:04.169Z,14.24
2022-10-31T09:34:54.057Z,14.22
2022-10-31T09:37:40.861Z,14.24
2022-10-31T09:40:34.880Z,14.41
2022-10-31T09:43:28.258Z,14.47
2022-10-31T09:46:23.695Z,14.45
2022-10-31T09:49:52.384Z,14.57
2022-10-31T09:52:41.933Z,14.55
2022-10-31T09:55:37.191Z,14.57
2022-10-31T09:58:28.590Z,14.56
2022-10-31T10:01:35.405Z,14.61
2022-10-31T10:04:39.411Z,14.73
2022-10-31T10:07:43.979Z,14.80
2022-10-31T10:10:57.289Z,14.98
2022-10-31T10:13:59.876Z,15.16
2022-10-31T10:17:02.993Z,15.25
2022-10-31T10:20:05.982Z,15.34
2022-10-31T10:23:04.539Z,15.32
2022-10-31T10:26:00.146Z,15.51
2022-10-31T10:28:49.794Z,15.71
2022-10-31T10:31:42.619Z,15.87
2022-10-31T10:34:34.631Z,15.88
2022-10-31T10:37:29.012Z,15.99
2022-10-31T10:40:18.967Z,16.14
2022-10-31T10:43:32.912Z,16.06
2022-10-31T10:46:38.744Z,15.99
2022-10-31T10:49:32.171Z,16.04
2022-10-31T10:52:50.560Z,16.15
2022-10-31T10:55:44.920Z,16.10
2022-10-31T10:58:32.907Z,16.09
2022-10-31T11:01:19.471Z,16.08
2022-10-31T11:04:26.139Z,16.20
2022-10-31T11:07:13.849Z,16.25
2022-10-31T11:10:06.097Z,16.28
2022-10-31T11:13:24.398Z,16.30
2022-10-31T11:16:15.104Z,16.38
2022-10-31T11:19:15.828Z,16.40
2022-10-31T11:22:08.147Z,16.53
2022-10-31T11:24:54.623Z,16.47
2022-10-31T11:27:41.358Z,16.41
2022-10-31T11:30:28.554Z,16.55
2022-10-31T11:33:22.841Z,16.63
2022-10-31T11:36:18.487Z,16.61
2022-10-31T11:39:07.834Z,16.58
2022-10-31T11:41:56.357Z,16.85
2022-10-31T11:44:46.477Z,16.71
2022-10-31T11:47:34.442Z,16.70
2022-10-31T11:50:25.318Z,16.76
2022-10-31T11:53:17.204Z,16.74
2022-10-31T11:56:07.578Z,16.81
2022-10-31T11:58:58.622Z,16.77
2022-10-31T12:01:50.119Z,16.92
2022-10-31T12:04:44.161Z,17.01
2022-10-31T12:07:32.467Z,16.86
2022-10-31T12:10:26.875Z,16.98
2022-10-31T12:13:35.341Z,16.94
2022-10-31T12:16:29.143Z,16.90
2022-10-31T12:19:27.361Z,17.00
2022-10-31T12:22:22.592Z,16.95
2022-10-31T12:25:24.094Z,16.92
2022-10-31T12:28:26.389Z,16.90
2022-10-31T12:31:29.494Z,16.90
2022-10-31T12:34:48.651Z,16.97
2022-10-31T12:37:53.205Z,17.09
2022-10-31T12:41:04.187Z,17.03
2022-10-31T12:43:59.395Z,17.38
2022-10-31T12:47:00.958Z,17.42
2022-10-31T12:49:56.488Z,17.32
2022-10-31T12:52:58.676Z,17.29
2022-10-31T12:56:04.184Z,17.30
2022-10-31T12:58:57.621Z,17.22
2022-10-31T13:01:51.559Z,17.20
2022-10-31T13:04:45.661Z,17.13
2022-10-31T13:07:38.409Z,17.23
2022-10-31T13:10:29.105Z,17.30
2022-10-31T13:13:20.538Z,17.44
2022-10-31T13:16:13.734Z,17.30
2022-10-31T13:19:06.719Z,17.32
2022-10-31T13:22:02.142Z,17.42
2022-10-31T13:24:55.654Z,17.60
2022-10-31T13:27:49.485Z,17.58
2022-10-31T13:30:42.048Z,17.58
2022-10-31T13:33:34.080Z,17.52
2022-10-31T13:36:28.366Z,17.28
2022-10-31T13:39:25.561Z,17.12
2022-10-31T13:42:20.565Z,17.06
2022-10-31T13:45:22.533Z,16.91
2022-10-31T13:48:35.855Z,16.80
2022-10-31T13:51:33.399Z,16.73
2022-10-31T13:54:24.382Z,16.68
2022-10-31T13:57:19.250Z,16.65
2022-10-31T14:00:09.406Z,16.65
2022-10-31T14:03:00.037Z,16.63
2022-10-31T14:05:55.507Z,16.62
2022-10-31T14:08:49.075Z,16.58
2022-10-31T14:11:37.166Z,16.56
2022-10-31T14:14:28.905Z,16.56
2022-10-31T14:17:25.809Z,16.49
2022-10-31T14:20:41.045Z,16.46
2022-10-31T14:23:37.433Z,16.47
2022-10-31T14:26:34.715Z,16.55
2022-10-31T14:29:29.937Z,16.50
2022-10-31T14:32:24.248Z,16.31
2022-10-31T14:35:21.250Z,16.44
2022-10-31T14:38:27.832Z,16.31
2022-10-31T14:41:46.921Z,16.22
2022-10-31T14:45:03.685Z,16.14
2022-10-31T14:48:06.973Z,16.00
2022-10-31T14:50:56.402Z,15.93
2022-10-31T14:53:49.556Z,15.85
2022-10-31T14:56:39.632Z,15.62
2022-10-31T14:59:31.467Z,15.56
2022-10-31T15:02:25.261Z,15.46
2022-10-31T15:05:13.817Z,15.35
2022-10-31T15:08:01.041Z,15.27
2022-10-31T15:10:48.251Z,15.19
2022-10-31T15:13:34.902Z,15.16
2022-10-31T15:16:25.228Z,15.12
2022-10-31T15:19:16.757Z,15.12
2022-10-31T15:22:03.350Z,15.11
2022-10-31T15:24:57.045Z,14.99
2022-10-31T15:27:43.593Z,14.84
2022-10-31T15:30:32.441Z,14.69
2022-10-31T15:33:25.948Z,14.61
2022-10-31T15:36:24.018Z,14.55
2022-10-31T15:39:14.093Z,14.47
2022-10-31T15:42:01.763Z,14.40
2022-10-31T15:44:51.952Z,14.34
2022-10-31T15:47:39.381Z,14.26
2022-10-31T15:50:32.209Z,14.20
2022-10-31T15:53:21.913Z,14.11
2022-10-31T15:56:10.857Z,14.00
2022-10-31T15:59:00.251Z,13.96
2022-10-31T16:02:02.827Z,13.90
2022-10-31T16:04:52.149Z,13.80
2022-10-31T16:07:50.835Z,13.76
2022-10-31T16:10:37.874Z,13.78
2022-10-31T16:13:28.872Z,13.74
2022-10-31T16:16:35.527Z,13.68
2022-10-31T16:19:25.054Z,13.71
2022-10-31T16:22:14.240Z,13.67
2022-10-31T16:25:07.110Z,13.61
2022-10-31T16:27:56.916Z,13.55
2022-10-31T16:30:48.388Z,13.63
2022-10-31T16:33:37.897Z,13.63
2022-10-31T16:36:35.890Z,13.52
2022-10-31T16:39:23.302Z,13.38
2022-10-31T16:42:12.056Z,13.45
2022-10-31T16:44:59.408Z,13.52
2022-10-31T16:47:46.275Z,13.58
2022-10-31T16:50:33.075Z,13.63
2022-10-31T16:53:19.839Z,13.65
2022-10-31T16:56:07.204Z,13.71
2022-10-31T16:58:55.518Z,13.77
2022-10-31T17:01:45.455Z,13.83
2022-10-31T17:04:32.145Z,13.81
2022-10-31T17:07:18.659Z,13.90
2022-10-31T17:10:06.129Z,13.88
2022-10-31T17:12:53.003Z,13.83
2022-10-31T17:15:45.195Z,13.81
2022-10-31T17:18:32.621Z,13.80
2022-10-31T17:21:23.227Z,13.82
2022-10-31T17:24:13.427Z,13.88
2022-10-31T17:26:59.937Z,13.83
2022-10-31T17:29:47.163Z,13.85
2022-10-31T17:32:34.944Z,13.80
2022-10-31T17:35:21.847Z,13.77
2022-10-31T17:38:08.771Z,13.74
2022-10-31T17:40:55.489Z,13.72
2022-10-31T17:43:42.443Z,13.76
2022-10-31T17:46:29.422Z,13.69
2022-10-31T17:49:17.317Z,13.70
2022-10-31T17:52:04.149Z,13.68
2022-10-31T17:54:51.078Z,13.64
2022-10-31T17:57:42.817Z,13.62
2022-10-31T18:00:31.393Z,13.60
2022-10-31T18:03:21.193Z,13.58
2022-10-31T18:06:11.174Z,13.56
2022-10-31T18:09:03.936Z,13.60
2022-10-31T18:11:59.335Z,13.64
2022-10-31T18:14:48.619Z,13.61
2022-10-31T18:17:38.074Z,13.58
2022-10-31T18:20:28.064Z,13.60
2022-10-31T18:23:16.218Z,13.63
2022-10-31T18:26:03.050Z,13.75
2022-10-31T18:28:49.766Z,13.66
2022-10-31T18:31:37.065Z,13.60
2022-10-31T18:34:27.396Z,13.56
2022-10-31T18:37:15.496Z,13.50
2022-10-31T18:40:04.735Z,13.49
2022-10-31T18:42:51.381Z,13.51
2022-10-31T18:45:47.238Z,13.51
2022-10-31T18:48:43.089Z,13.75
2022-10-31T18:51:31.594Z,13.75
2022-10-31T18:54:20.175Z,13.65
2022-10-31T18:57:10.899Z,13.78
2022-10-31T19:00:01.850Z,13.75
2022-10-31T19:02:49.922Z,13.65
2022-10-31T19:05:37.133Z,13.64
2022-10-31T19:08:25.949Z,13.68
2022-10-31T19:11:16.369Z,13.77
2022-10-31T19:14:04.456Z,13.81
2022-10-31T19:16:52.505Z,13.72
2022-10-31T19:19:39.575Z,13.65
2022-10-31T19:22:26.322Z,13.66
2022-10-31T19:25:13.179Z,13.76
2022-10-31T19:28:00.368Z,13.77
2022-10-31T19:30:55.388Z,13.88
2022-10-31T19:33:42.028Z,13.94
2022-10-31T19:36:29.695Z,13.95
2022-10-31T19:39:16.249Z,13.93
2022-10-31T19:42:02.974Z,13.92
2022-10-31T19:44:51.818Z,13.87
2022-10-31T19:47:41.880Z,13.90
2022-10-31T19:50:30.495Z,13.90
2022-10-31T19:53:17.711Z,13.85
2022-10-31T19:56:05.047Z,13.82
2022-10-31T19:58:53.417Z,13.89
2022-10-31T20:01:43.104Z,13.94
2022-10-31T20:04:34.580Z,13.87
2022-10-31T20:07:24.125Z,13.84
2022-10-31T20:10:12.611Z,13.85
2022-10-31T20:13:01.923Z,13.82
2022-10-31T20:15:50.575Z,13.85
2022-10-31T20:18:38.295Z,13.93
2022-10-31T20:21:28.731Z,13.92
2022-10-31T20:24:15.598Z,14.00
2022-10-31T20:27:03.232Z,13.91
2022-10-31T20:29:49.763Z,13.87
2022-10-31T20:32:37.355Z,13.88
2022-10-31T20:35:23.985Z,13.90
2022-10-31T20:38:12.237Z,13.84
2022-10-31T20:41:01.565Z,13.84
2022-10-31T20:43:48.751Z,13.90
2022-10-31T20:46:35.443Z,13.89
2022-10-31T20:49:22.230Z,13.89
2022-10-31T20:52:08.795Z,13.85
2022-10-31T20:54:56.877Z,13.83
2022-10-31T20:57:44.066Z,13.77
2022-10-31T21:00:30.873Z,13.86
2022-10-31T21:03:17.690Z,13.78
2022-10-31T21:06:05.906Z,13.73
2022-10-31T21:08:53.936Z,13.80
2022-10-31T21:11:41.873Z,13.75
2022-10-31T21:14:28.741Z,13.75
2022-10-31T21:17:15.643Z,13.75
2022-10-31T21:20:02.470Z,13.78
2022-10-31T21:22:49.142Z,13.68
2022-10-31T21:25:39.279Z,13.78
2022-10-31T21:28:27.241Z,13.68
2022-10-31T21:31:16.500Z,13.72
2022-10-31T21:34:04.006Z,13.72
2022-10-31T21:36:50.428Z,13.67
2022-10-31T21:39:38.669Z,13.73
2022-10-31T21:42:25.867Z,13.64
2022-10-31T21:45:14.107Z,13.63
2022-10-31T21:48:01.074Z,13.67
2022-10-31T21:50:48.855Z,13.60
2022-10-31T21:53:53.574Z,13.58
2022-10-31T21:56:40.242Z,13.54
2022-10-31T21:59:27.267Z,13.59
2022-10-31T22:02:16.646Z,13.56
2022-10-31T22:05:03.118Z,13.55
2022-10-31T22:07:49.773Z,13.54
2022-10-31T22:10:36.613Z,13.52
2022-10-31T22:13:23.905Z,13.53
2022-10-31T22:16:13.452Z,13.50
2022-10-31T22:19:05.474Z,13.59
2022-10-31T22:21:52.689Z,13.63
2022-10-31T22:24:40.524Z,13.54
2022-10-31T22:27:29.037Z,13.56
2022-10-31T22:30:15.681Z,13.49
2022-10-31T22:33:02.873Z,13.56
2022-10-31T22:35:51.223Z,13.47
2022-10-31T22:38:40.517Z,13.45
2022-10-31T22:41:29.567Z,13.49
2022-10-31T22:44:16.307Z,13.48
2022-10-31T22:47:03.240Z,13.46
2022-10-31T22:49:50.133Z,13.51
2022-10-31T22:52:38.292Z,13.44
2022-10-31T22:55:24.948Z,13.52
2022-10-31T22:58:11.959Z,13.49
2022-10-31T23:00:58.865Z,13.49
2022-10-31T23:03:45.611Z,13.49
2022-10-31T23:06:34.148Z,13.39
2022-10-31T23:09:22.156Z,13.37
2022-10-31T23:12:22.993Z,13.42
2022-10-31T23:15:10.440Z,13.43
2022-10-31T23:17:58.364Z,13.49
2022-10-31T23:20:51.265Z,13.47
2022-10-31T23:23:41.924Z,13.53
2022-10-31T23:26:48.934Z,13.48
2022-10-31T23:29:42.430Z,13.49
2022-10-31T23:32:31.526Z,13.58
2022-10-31T23:35:18.378Z,13.50
2022-10-31T23:38:05.030Z,13.52
2022-10-31T23:40:51.766Z,13.55
2022-10-31T23:43:39.824Z,13.63
2022-10-31T23:46:26.794Z,13.57
2022-10-31T23:49:15.699Z,13.56
2022-10-31T23:52:02.579Z,13.57
2022-10-31T23:54:49.354Z,13.54
2022-10-31T23:57:36.026Z,13.59
